sensor_id;sensor_type;location;lat;lon;timestamp;temperature;humidity
2767;DHT22;1391;46.74287300;11.63683300;2023-11-21T00:00:53;2.70;99.90
2767;DHT22;1391;46.74287300;11.63683300;2023-11-21T00:03:21;2.60;99.90
2767;DHT22;1391;46.74287300;11.63683300;2023-11-21T00:05:50;2.80;99.90
2767;DHT22;1391;46.74287300;11.63683300;2023-11-21T00:08:18;2.10;99.90
2767;DHT22;1391;46.74287300;11.63683300;2023-11-21T00:10:45;2.40;99.90
2767;DHT22;1391;46.74287300;11.63683300;2023-11-21T00:13:14;2.40;99.90
2767;DHT22;1391;46.74287300;11.63683300;2023-11-21T00:15:41;2.50;99.90
2767;DHT22;1391;46.74287300;11.63683300;2023-11-21T00:18:08;2.10;99.90
2767;DHT22;1391;46.74287300;11.63683300;2023-11-21T00:20:35;2.10;99.90
2767;DHT22;1391;46.74287300;11.63683300;2023-11-21T00:23:04;2.40;99.90
2767;DHT22;1391;46.74287300;11.63683300;2023-11-21T00:25:31;2.40;99.90
2767;DHT22;1391;46.74287300;11.63683300;2023-11-21T00:27:58;2.50;99.90
2767;DHT22;1391;46.74287300;11.63683300;2023-11-21T00:30:27;2.30;99.90
2767;DHT22;1391;46.74287300;11.63683300;2023-11-21T00:32:55;2.80;99.90
2767;DHT22;1391;46.74287300;11.63683300;2023-11-21T00:35:22;2.80;99.90
2767;DHT22;1391;46.74287300;11.63683300;2023-11-21T00:37:49;2.40;99.90
2767;DHT22;1391;46.74287300;11.63683300;2023-11-21T00:40:17;2.40;99.90
2767;DHT22;1391;46.74287300;11.63683300;2023-11-21T00:42:47;2.50;99.90
2767;DHT22;1391;46.74287300;11.63683300;2023-11-21T00:45:14;2.90;99.90
2767;DHT22;1391;46.74287300;11.63683300;2023-11-21T00:47:41;2.80;99.90
2767;DHT22;1391;46.74287300;11.63683300;2023-11-21T00:50:09;2.70;99.90
2767;DHT22;1391;46.74287300;11.63683300;2023-11-21T00:52:36;2.60;99.90
2767;DHT22;1391;46.74287300;11.63683300;2023-11-21T00:55:04;3.10;99.90
2767;DHT22;1391;46.74287300;11.63683300;2023-11-21T00:57:35;2.50;99.90
2767;DHT22;1391;46.74287300;11.63683300;2023-11-21T01:00:03;2.70;99.90
2767;DHT22;1391;46.74287300;11.63683300;2023-11-21T01:02:33;2.60;99.90
2767;DHT22;1391;46.74287300;11.63683300;2023-11-21T01:05:01;2.40;99.90
2767;DHT22;1391;46.74287300;11.63683300;2023-11-21T01:07:29;2.40;99.90
2767;DHT22;1391;46.74287300;11.63683300;2023-11-21T01:09:56;2.70;99.90
2767;DHT22;1391;46.74287300;11.63683300;2023-11-21T01:12:23;2.80;99.90
2767;DHT22;1391;46.74287300;11.63683300;2023-11-21T01:14:52;3.10;99.90
2767;DHT22;1391;46.74287300;11.63683300;2023-11-21T01:17:20;3.10;99.90
2767;DHT22;1391;46.74287300;11.63683300;2023-11-21T01:19:48;3.20;99.90
2767;DHT22;1391;46.74287300;11.63683300;2023-11-21T01:22:15;3.00;99.90
2767;DHT22;1391;46.74287300;11.63683300;2023-11-21T01:25:11;2.90;99.90
2767;DHT22;1391;46.74287300;11.63683300;2023-11-21T01:27:39;3.10;99.90
2767;DHT22;1391;46.74287300;11.63683300;2023-11-21T01:30:09;2.70;99.90
2767;DHT22;1391;46.74287300;11.63683300;2023-11-21T01:32:37;2.70;99.90
2767;DHT22;1391;46.74287300;11.63683300;2023-11-21T01:35:05;3.20;99.90
2767;DHT22;1391;46.74287300;11.63683300;2023-11-21T01:37:32;3.10;99.90
2767;DHT22;1391;46.74287300;11.63683300;2023-11-21T01:40:00;2.80;99.90
2767;DHT22;1391;46.74287300;11.63683300;2023-11-21T01:42:30;2.90;99.90
2767;DHT22;1391;46.74287300;11.63683300;2023-11-21T01:44:57;2.70;99.90
2767;DHT22;1391;46.74287300;11.63683300;2023-11-21T01:47:26;2.90;99.90
2767;DHT22;1391;46.74287300;11.63683300;2023-11-21T01:49:53;3.20;99.90
2767;DHT22;1391;46.74287300;11.63683300;2023-11-21T01:55:42;3.20;99.90
2767;DHT22;1391;46.74287300;11.63683300;2023-11-21T01:58:10;3.30;99.90
2767;DHT22;1391;46.74287300;11.63683300;2023-11-21T02:00:39;2.80;99.90
2767;DHT22;1391;46.74287300;11.63683300;2023-11-21T02:03:08;3.00;99.90
2767;DHT22;1391;46.74287300;11.63683300;2023-11-21T02:05:36;2.90;99.90
2767;DHT22;1391;46.74287300;11.63683300;2023-11-21T02:08:04;3.40;99.90
2767;DHT22;1391;46.74287300;11.63683300;2023-11-21T02:10:32;3.00;99.90
2767;DHT22;1391;46.74287300;11.63683300;2023-11-21T02:12:59;2.90;99.90
2767;DHT22;1391;46.74287300;11.63683300;2023-11-21T02:15:28;3.20;99.90
2767;DHT22;1391;46.74287300;11.63683300;2023-11-21T02:17:55;3.40;99.90
2767;DHT22;1391;46.74287300;11.63683300;2023-11-21T02:20:25;3.30;99.90
2767;DHT22;1391;46.74287300;11.63683300;2023-11-21T02:22:57;3.10;99.90
2767;DHT22;1391;46.74287300;11.63683300;2023-11-21T02:25:25;2.70;99.90
2767;DHT22;1391;46.74287300;11.63683300;2023-11-21T02:27:53;2.80;99.90
2767;DHT22;1391;46.74287300;11.63683300;2023-11-21T02:30:21;3.00;99.90
2767;DHT22;1391;46.74287300;11.63683300;2023-11-21T02:32:47;3.00;99.90
2767;DHT22;1391;46.74287300;11.63683300;2023-11-21T02:35:15;2.80;99.90
2767;DHT22;1391;46.74287300;11.63683300;2023-11-21T02:37:42;2.90;99.90
2767;DHT22;1391;46.74287300;11.63683300;2023-11-21T02:40:11;3.20;99.90
2767;DHT22;1391;46.74287300;11.63683300;2023-11-21T02:42:43;2.70;99.90
2767;DHT22;1391;46.74287300;11.63683300;2023-11-21T02:45:10;2.80;99.90
2767;DHT22;1391;46.74287300;11.63683300;2023-11-21T02:47:38;3.00;99.90
2767;DHT22;1391;46.74287300;11.63683300;2023-11-21T02:50:07;3.00;99.90
2767;DHT22;1391;46.74287300;11.63683300;2023-11-21T02:52:34;2.90;99.90
2767;DHT22;1391;46.74287300;11.63683300;2023-11-21T02:55:02;3.40;99.90
2767;DHT22;1391;46.74287300;11.63683300;2023-11-21T02:57:31;3.20;99.90
2767;DHT22;1391;46.74287300;11.63683300;2023-11-21T02:59:59;3.30;99.90
2767;DHT22;1391;46.74287300;11.63683300;2023-11-21T03:02:26;2.90;99.90
2767;DHT22;1391;46.74287300;11.63683300;2023-11-21T03:04:53;2.90;99.90
2767;DHT22;1391;46.74287300;11.63683300;2023-11-21T03:07:20;2.90;99.90
2767;DHT22;1391;46.74287300;11.63683300;2023-11-21T03:09:48;3.20;99.90
2767;DHT22;1391;46.74287300;11.63683300;2023-11-21T03:12:15;3.40;99.90
2767;DHT22;1391;46.74287300;11.63683300;2023-11-21T03:14:44;3.00;99.90
2767;DHT22;1391;46.74287300;11.63683300;2023-11-21T03:17:11;3.00;99.90
2767;DHT22;1391;46.74287300;11.63683300;2023-11-21T03:19:41;3.00;99.90
2767;DHT22;1391;46.74287300;11.63683300;2023-11-21T03:22:08;3.00;99.90
2767;DHT22;1391;46.74287300;11.63683300;2023-11-21T03:24:37;3.00;99.90
2767;DHT22;1391;46.74287300;11.63683300;2023-11-21T03:27:04;2.90;99.90
2767;DHT22;1391;46.74287300;11.63683300;2023-11-21T03:29:32;2.70;99.90
2767;DHT22;1391;46.74287300;11.63683300;2023-11-21T03:32:00;2.80;99.90
2767;DHT22;1391;46.74287300;11.63683300;2023-11-21T03:34:28;2.90;99.90
2767;DHT22;1391;46.74287300;11.63683300;2023-11-21T03:36:55;2.80;99.90
2767;DHT22;1391;46.74287300;11.63683300;2023-11-21T03:39:22;2.70;99.90
2767;DHT22;1391;46.74287300;11.63683300;2023-11-21T03:41:51;3.00;99.90
2767;DHT22;1391;46.74287300;11.63683300;2023-11-21T03:44:18;3.00;99.90
2767;DHT22;1391;46.74287300;11.63683300;2023-11-21T03:46:45;3.10;99.90
2767;DHT22;1391;46.74287300;11.63683300;2023-11-21T03:49:14;2.80;99.90
2767;DHT22;1391;46.74287300;11.63683300;2023-11-21T03:51:41;2.90;99.90
2767;DHT22;1391;46.74287300;11.63683300;2023-11-21T03:54:08;2.70;99.90
2767;DHT22;1391;46.74287300;11.63683300;2023-11-21T03:56:35;2.80;99.90
2767;DHT22;1391;46.74287300;11.63683300;2023-11-21T03:59:03;2.80;99.90
2767;DHT22;1391;46.74287300;11.63683300;2023-11-21T04:01:30;2.40;99.90
2767;DHT22;1391;46.74287300;11.63683300;2023-11-21T04:03:57;2.40;99.90
2767;DHT22;1391;46.74287300;11.63683300;2023-11-21T04:06:26;2.40;99.90
2767;DHT22;1391;46.74287300;11.63683300;2023-11-21T04:08:53;2.40;99.90
2767;DHT22;1391;46.74287300;11.63683300;2023-11-21T04:11:21;2.40;99.90
2767;DHT22;1391;46.74287300;11.63683300;2023-11-21T04:13:48;2.60;99.90
2767;DHT22;1391;46.74287300;11.63683300;2023-11-21T04:16:15;2.50;99.90
2767;DHT22;1391;46.74287300;11.63683300;2023-11-21T04:18:44;2.60;99.90
2767;DHT22;1391;46.74287300;11.63683300;2023-11-21T04:21:11;2.30;99.90
2767;DHT22;1391;46.74287300;11.63683300;2023-11-21T04:23:39;2.40;99.90
2767;DHT22;1391;46.74287300;11.63683300;2023-11-21T04:26:06;2.00;99.90
2767;DHT22;1391;46.74287300;11.63683300;2023-11-21T04:28:34;1.70;99.90
2767;DHT22;1391;46.74287300;11.63683300;2023-11-21T04:31:01;1.70;99.90
2767;DHT22;1391;46.74287300;11.63683300;2023-11-21T04:33:28;1.80;99.90
2767;DHT22;1391;46.74287300;11.63683300;2023-11-21T04:35:57;2.00;99.90
2767;DHT22;1391;46.74287300;11.63683300;2023-11-21T04:38:24;2.00;99.90
2767;DHT22;1391;46.74287300;11.63683300;2023-11-21T04:40:52;2.40;99.90
2767;DHT22;1391;46.74287300;11.63683300;2023-11-21T04:43:20;1.80;99.90
2767;DHT22;1391;46.74287300;11.63683300;2023-11-21T04:45:49;1.80;99.90
2767;DHT22;1391;46.74287300;11.63683300;2023-11-21T04:48:16;1.90;99.90
2767;DHT22;1391;46.74287300;11.63683300;2023-11-21T04:50:43;2.40;99.90
2767;DHT22;1391;46.74287300;11.63683300;2023-11-21T04:53:10;1.80;99.90
2767;DHT22;1391;46.74287300;11.63683300;2023-11-21T04:55:39;1.80;99.90
2767;DHT22;1391;46.74287300;11.63683300;2023-11-21T04:58:08;1.60;99.90
2767;DHT22;1391;46.74287300;11.63683300;2023-11-21T05:00:36;1.90;99.90
2767;DHT22;1391;46.74287300;11.63683300;2023-11-21T05:03:04;1.70;99.90
2767;DHT22;1391;46.74287300;11.63683300;2023-11-21T05:05:32;2.00;99.90
2767;DHT22;1391;46.74287300;11.63683300;2023-11-21T05:08:00;1.80;99.90
2767;DHT22;1391;46.74287300;11.63683300;2023-11-21T05:10:30;1.70;99.90
2767;DHT22;1391;46.74287300;11.63683300;2023-11-21T05:12:57;1.60;99.90
2767;DHT22;1391;46.74287300;11.63683300;2023-11-21T05:15:25;1.40;99.90
2767;DHT22;1391;46.74287300;11.63683300;2023-11-21T05:17:54;1.70;99.90
2767;DHT22;1391;46.74287300;11.63683300;2023-11-21T05:20:25;1.70;99.90
2767;DHT22;1391;46.74287300;11.63683300;2023-11-21T05:22:52;1.70;99.90
2767;DHT22;1391;46.74287300;11.63683300;2023-11-21T05:25:19;1.60;99.90
2767;DHT22;1391;46.74287300;11.63683300;2023-11-21T05:27:47;1.40;99.90
2767;DHT22;1391;46.74287300;11.63683300;2023-11-21T05:30:14;1.70;99.90
2767;DHT22;1391;46.74287300;11.63683300;2023-11-21T05:32:43;1.60;99.90
2767;DHT22;1391;46.74287300;11.63683300;2023-11-21T05:35:12;1.40;99.90
2767;DHT22;1391;46.74287300;11.63683300;2023-11-21T05:37:41;1.10;99.90
2767;DHT22;1391;46.74287300;11.63683300;2023-11-21T05:40:09;1.10;99.90
2767;DHT22;1391;46.74287300;11.63683300;2023-11-21T05:42:37;1.20;99.90
2767;DHT22;1391;46.74287300;11.63683300;2023-11-21T05:45:05;1.70;99.90
2767;DHT22;1391;46.74287300;11.63683300;2023-11-21T05:47:36;1.10;99.90
2767;DHT22;1391;46.74287300;11.63683300;2023-11-21T05:50:07;1.10;99.90
2767;DHT22;1391;46.74287300;11.63683300;2023-11-21T05:52:40;1.10;99.90
2767;DHT22;1391;46.74287300;11.63683300;2023-11-21T05:55:08;1.00;99.90
2767;DHT22;1391;46.74287300;11.63683300;2023-11-21T05:57:35;1.20;99.90
2767;DHT22;1391;46.74287300;11.63683300;2023-11-21T06:00:05;1.40;99.90
2767;DHT22;1391;46.74287300;11.63683300;2023-11-21T06:02:37;1.20;99.90
2767;DHT22;1391;46.74287300;11.63683300;2023-11-21T06:05:07;1.20;99.90
2767;DHT22;1391;46.74287300;11.63683300;2023-11-21T06:07:35;1.40;99.90
2767;DHT22;1391;46.74287300;11.63683300;2023-11-21T06:10:02;1.30;99.90
2767;DHT22;1391;46.74287300;11.63683300;2023-11-21T06:12:32;1.50;99.90
2767;DHT22;1391;46.74287300;11.63683300;2023-11-21T06:15:01;1.50;99.90
2767;DHT22;1391;46.74287300;11.63683300;2023-11-21T06:17:31;1.40;99.90
2767;DHT22;1391;46.74287300;11.63683300;2023-11-21T06:19:58;1.60;99.90
2767;DHT22;1391;46.74287300;11.63683300;2023-11-21T06:22:27;1.20;99.90
2767;DHT22;1391;46.74287300;11.63683300;2023-11-21T06:24:56;1.20;99.90
2767;DHT22;1391;46.74287300;11.63683300;2023-11-21T06:27:23;1.20;99.90
2767;DHT22;1391;46.74287300;11.63683300;2023-11-21T06:29:52;1.40;99.90
2767;DHT22;1391;46.74287300;11.63683300;2023-11-21T06:32:19;1.10;99.90
2767;DHT22;1391;46.74287300;11.63683300;2023-11-21T06:34:48;1.70;99.90
2767;DHT22;1391;46.74287300;11.63683300;2023-11-21T06:37:17;1.10;99.90
2767;DHT22;1391;46.74287300;11.63683300;2023-11-21T06:39:48;1.10;99.90
2767;DHT22;1391;46.74287300;11.63683300;2023-11-21T06:42:15;1.00;99.90
2767;DHT22;1391;46.74287300;11.63683300;2023-11-21T06:44:43;1.40;99.90
2767;DHT22;1391;46.74287300;11.63683300;2023-11-21T06:47:10;1.30;99.90
2767;DHT22;1391;46.74287300;11.63683300;2023-11-21T06:49:37;1.60;99.90
2767;DHT22;1391;46.74287300;11.63683300;2023-11-21T06:52:07;1.40;99.90
2767;DHT22;1391;46.74287300;11.63683300;2023-11-21T06:54:34;1.90;99.90
2767;DHT22;1391;46.74287300;11.63683300;2023-11-21T06:57:03;1.60;99.90
2767;DHT22;1391;46.74287300;11.63683300;2023-11-21T06:59:30;1.40;99.90
2767;DHT22;1391;46.74287300;11.63683300;2023-11-21T07:01:57;1.90;99.90
2767;DHT22;1391;46.74287300;11.63683300;2023-11-21T07:04:25;1.70;99.90
2767;DHT22;1391;46.74287300;11.63683300;2023-11-21T07:06:53;1.80;99.90
2767;DHT22;1391;46.74287300;11.63683300;2023-11-21T07:09:21;1.30;99.90
2767;DHT22;1391;46.74287300;11.63683300;2023-11-21T07:11:48;1.60;99.90
2767;DHT22;1391;46.74287300;11.63683300;2023-11-21T07:14:16;2.00;99.90
2767;DHT22;1391;46.74287300;11.63683300;2023-11-21T07:16:45;2.00;99.90
2767;DHT22;1391;46.74287300;11.63683300;2023-11-21T07:19:13;2.00;99.90
2767;DHT22;1391;46.74287300;11.63683300;2023-11-21T07:21:41;1.80;99.90
2767;DHT22;1391;46.74287300;11.63683300;2023-11-21T07:24:08;1.90;99.90
2767;DHT22;1391;46.74287300;11.63683300;2023-11-21T07:26:37;2.00;99.90
2767;DHT22;1391;46.74287300;11.63683300;2023-11-21T07:29:04;2.00;99.90
2767;DHT22;1391;46.74287300;11.63683300;2023-11-21T07:31:33;1.90;99.90
2767;DHT22;1391;46.74287300;11.63683300;2023-11-21T07:34:01;2.30;99.90
2767;DHT22;1391;46.74287300;11.63683300;2023-11-21T07:36:28;2.40;99.90
2767;DHT22;1391;46.74287300;11.63683300;2023-11-21T07:38:55;2.00;99.90
2767;DHT22;1391;46.74287300;11.63683300;2023-11-21T07:41:22;2.50;99.90
2767;DHT22;1391;46.74287300;11.63683300;2023-11-21T07:43:49;2.40;99.90
2767;DHT22;1391;46.74287300;11.63683300;2023-11-21T07:46:17;2.60;99.90
2767;DHT22;1391;46.74287300;11.63683300;2023-11-21T07:48:46;2.30;99.90
2767;DHT22;1391;46.74287300;11.63683300;2023-11-21T07:51:12;2.30;99.90
2767;DHT22;1391;46.74287300;11.63683300;2023-11-21T07:53:39;2.30;99.90
2767;DHT22;1391;46.74287300;11.63683300;2023-11-21T07:56:08;2.20;99.90
2767;DHT22;1391;46.74287300;11.63683300;2023-11-21T07:58:36;2.00;99.90
2767;DHT22;1391;46.74287300;11.63683300;2023-11-21T08:01:04;2.40;99.90
2767;DHT22;1391;46.74287300;11.63683300;2023-11-21T08:03:32;2.60;99.90
2767;DHT22;1391;46.74287300;11.63683300;2023-11-21T08:06:01;2.40;99.90
2767;DHT22;1391;46.74287300;11.63683300;2023-11-21T08:08:31;2.70;99.90
2767;DHT22;1391;46.74287300;11.63683300;2023-11-21T08:10:58;2.90;99.90
2767;DHT22;1391;46.74287300;11.63683300;2023-11-21T08:13:28;2.80;99.90
2767;DHT22;1391;46.74287300;11.63683300;2023-11-21T08:15:57;3.10;99.90
2767;DHT22;1391;46.74287300;11.63683300;2023-11-21T08:18:28;3.40;99.90
2767;DHT22;1391;46.74287300;11.63683300;2023-11-21T08:20:56;3.10;99.90
2767;DHT22;1391;46.74287300;11.63683300;2023-11-21T08:23:25;3.40;99.90
2767;DHT22;1391;46.74287300;11.63683300;2023-11-21T08:25:53;3.40;99.90
2767;DHT22;1391;46.74287300;11.63683300;2023-11-21T08:28:21;4.10;99.90
2767;DHT22;1391;46.74287300;11.63683300;2023-11-21T08:30:49;4.20;99.90
2767;DHT22;1391;46.74287300;11.63683300;2023-11-21T08:33:16;4.10;99.90
2767;DHT22;1391;46.74287300;11.63683300;2023-11-21T08:35:43;4.00;99.90
2767;DHT22;1391;46.74287300;11.63683300;2023-11-21T08:38:11;4.80;99.90
2767;DHT22;1391;46.74287300;11.63683300;2023-11-21T08:40:40;5.00;99.90
2767;DHT22;1391;46.74287300;11.63683300;2023-11-21T08:43:07;5.50;99.90
2767;DHT22;1391;46.74287300;11.63683300;2023-11-21T08:45:34;5.30;99.90
2767;DHT22;1391;46.74287300;11.63683300;2023-11-21T08:48:01;4.90;99.90
2767;DHT22;1391;46.74287300;11.63683300;2023-11-21T08:50:29;5.20;99.90
2767;DHT22;1391;46.74287300;11.63683300;2023-11-21T08:52:56;5.40;99.90
2767;DHT22;1391;46.74287300;11.63683300;2023-11-21T08:55:23;6.00;99.90
2767;DHT22;1391;46.74287300;11.63683300;2023-11-21T08:57:52;6.60;99.90
2767;DHT22;1391;46.74287300;11.63683300;2023-11-21T09:00:19;6.10;99.90
2767;DHT22;1391;46.74287300;11.63683300;2023-11-21T09:02:47;6.60;99.90
2767;DHT22;1391;46.74287300;11.63683300;2023-11-21T09:05:15;7.20;99.90
2767;DHT22;1391;46.74287300;11.63683300;2023-11-21T09:07:43;7.20;99.90
2767;DHT22;1391;46.74287300;11.63683300;2023-11-21T09:10:11;7.20;99.90
2767;DHT22;1391;46.74287300;11.63683300;2023-11-21T09:12:40;7.10;99.90
2767;DHT22;1391;46.74287300;11.63683300;2023-11-21T09:15:10;6.60;99.90
2767;DHT22;1391;46.74287300;11.63683300;2023-11-21T09:17:38;6.80;99.90
2767;DHT22;1391;46.74287300;11.63683300;2023-11-21T09:20:07;6.70;99.90
2767;DHT22;1391;46.74287300;11.63683300;2023-11-21T09:22:35;6.80;99.90
2767;DHT22;1391;46.74287300;11.63683300;2023-11-21T09:25:03;7.70;99.90
2767;DHT22;1391;46.74287300;11.63683300;2023-11-21T09:27:31;8.30;99.90
2767;DHT22;1391;46.74287300;11.63683300;2023-11-21T09:29:59;8.60;93.70
2767;DHT22;1391;46.74287300;11.63683300;2023-11-21T09:32:27;8.70;86.80
2767;DHT22;1391;46.74287300;11.63683300;2023-11-21T09:34:55;9.00;86.70
2767;DHT22;1391;46.74287300;11.63683300;2023-11-21T09:37:24;9.20;84.30
2767;DHT22;1391;46.74287300;11.63683300;2023-11-21T09:39:52;9.00;73.80
2767;DHT22;1391;46.74287300;11.63683300;2023-11-21T09:42:25;8.70;81.00
2767;DHT22;1391;46.74287300;11.63683300;2023-11-21T09:45:00;8.70;79.80
2767;DHT22;1391;46.74287300;11.63683300;2023-11-21T09:47:34;9.10;75.90
2767;DHT22;1391;46.74287300;11.63683300;2023-11-21T09:50:03;8.00;76.30
2767;DHT22;1391;46.74287300;11.63683300;2023-11-21T09:52:39;8.10;82.30
2767;DHT22;1391;46.74287300;11.63683300;2023-11-21T09:55:11;8.10;79.90
2767;DHT22;1391;46.74287300;11.63683300;2023-11-21T09:57:41;7.90;78.70
2767;DHT22;1391;46.74287300;11.63683300;2023-11-21T10:00:14;8.20;76.50
2767;DHT22;1391;46.74287300;11.63683300;2023-11-21T10:02:44;8.10;75.30
2767;DHT22;1391;46.74287300;11.63683300;2023-11-21T10:05:12;7.60;77.60
2767;DHT22;1391;46.74287300;11.63683300;2023-11-21T10:07:42;7.50;80.50
2767;DHT22;1391;46.74287300;11.63683300;2023-11-21T10:10:10;7.90;80.70
2767;DHT22;1391;46.74287300;11.63683300;2023-11-21T10:12:38;7.60;76.30
2767;DHT22;1391;46.74287300;11.63683300;2023-11-21T10:15:08;7.80;78.80
2767;DHT22;1391;46.74287300;11.63683300;2023-11-21T10:17:38;7.50;71.40
2767;DHT22;1391;46.74287300;11.63683300;2023-11-21T10:20:12;8.20;72.10
2767;DHT22;1391;46.74287300;11.63683300;2023-11-21T10:22:40;8.00;73.90
2767;DHT22;1391;46.74287300;11.63683300;2023-11-21T10:25:08;7.50;74.30
2767;DHT22;1391;46.74287300;11.63683300;2023-11-21T10:27:35;8.10;77.60
2767;DHT22;1391;46.74287300;11.63683300;2023-11-21T10:30:06;8.00;73.90
2767;DHT22;1391;46.74287300;11.63683300;2023-11-21T10:32:37;8.60;71.90
2767;DHT22;1391;46.74287300;11.63683300;2023-11-21T10:35:07;8.80;70.00
2767;DHT22;1391;46.74287300;11.63683300;2023-11-21T10:37:37;8.60;70.80
2767;DHT22;1391;46.74287300;11.63683300;2023-11-21T10:40:06;9.10;69.60
2767;DHT22;1391;46.74287300;11.63683300;2023-11-21T10:42:34;9.40;63.00
2767;DHT22;1391;46.74287300;11.63683300;2023-11-21T10:45:04;9.40;62.60
2767;DHT22;1391;46.74287300;11.63683300;2023-11-21T10:47:35;9.60;62.30
2767;DHT22;1391;46.74287300;11.63683300;2023-11-21T10:50:04;9.60;61.70
2767;DHT22;1391;46.74287300;11.63683300;2023-11-21T10:52:34;9.90;59.80
2767;DHT22;1391;46.74287300;11.63683300;2023-11-21T10:55:16;10.00;58.10
2767;DHT22;1391;46.74287300;11.63683300;2023-11-21T10:57:46;9.90;57.50
2767;DHT22;1391;46.74287300;11.63683300;2023-11-21T11:00:16;10.70;58.50
2767;DHT22;1391;46.74287300;11.63683300;2023-11-21T11:02:48;10.60;51.70
2767;DHT22;1391;46.74287300;11.63683300;2023-11-21T11:05:20;11.10;54.50
2767;DHT22;1391;46.74287300;11.63683300;2023-11-21T11:07:51;11.10;44.30
2767;DHT22;1391;46.74287300;11.63683300;2023-11-21T11:10:21;11.00;45.60
2767;DHT22;1391;46.74287300;11.63683300;2023-11-21T11:12:51;11.30;46.40
2767;DHT22;1391;46.74287300;11.63683300;2023-11-21T11:15:21;11.70;43.50
2767;DHT22;1391;46.74287300;11.63683300;2023-11-21T11:17:49;12.10;41.60
2767;DHT22;1391;46.74287300;11.63683300;2023-11-21T11:20:17;12.30;37.20
2767;DHT22;1391;46.74287300;11.63683300;2023-11-21T11:22:57;12.80;35.60
2767;DHT22;1391;46.74287300;11.63683300;2023-11-21T11:25:46;12.70;29.20
2767;DHT22;1391;46.74287300;11.63683300;2023-11-21T11:28:21;12.60;29.60
2767;DHT22;1391;46.74287300;11.63683300;2023-11-21T11:31:01;12.50;28.30
2767;DHT22;1391;46.74287300;11.63683300;2023-11-21T11:33:36;12.30;27.50
2767;DHT22;1391;46.74287300;11.63683300;2023-11-21T11:36:13;12.50;28.50
2767;DHT22;1391;46.74287300;11.63683300;2023-11-21T11:38:46;12.70;28.80
2767;DHT22;1391;46.74287300;11.63683300;2023-11-21T11:41:25;12.50;29.60
2767;DHT22;1391;46.74287300;11.63683300;2023-11-21T11:43:55;12.90;24.50
2767;DHT22;1391;46.74287300;11.63683300;2023-11-21T11:46:40;12.70;28.70
2767;DHT22;1391;46.74287300;11.63683300;2023-11-21T11:49:08;13.10;26.00
2767;DHT22;1391;46.74287300;11.63683300;2023-11-21T11:51:37;13.10;29.20
2767;DHT22;1391;46.74287300;11.63683300;2023-11-21T11:54:05;13.10;23.20
2767;DHT22;1391;46.74287300;11.63683300;2023-11-21T11:56:35;12.60;23.80
2767;DHT22;1391;46.74287300;11.63683300;2023-11-21T11:59:05;12.60;22.50
2767;DHT22;1391;46.74287300;11.63683300;2023-11-21T12:01:35;12.60;24.80
2767;DHT22;1391;46.74287300;11.63683300;2023-11-21T12:04:24;12.70;23.50
2767;DHT22;1391;46.74287300;11.63683300;2023-11-21T12:07:02;12.30;19.00
2767;DHT22;1391;46.74287300;11.63683300;2023-11-21T12:09:31;12.70;16.50
2767;DHT22;1391;46.74287300;11.63683300;2023-11-21T12:12:00;12.30;24.30
2767;DHT22;1391;46.74287300;11.63683300;2023-11-21T12:14:30;11.90;20.50
2767;DHT22;1391;46.74287300;11.63683300;2023-11-21T12:16:58;12.30;15.00
2767;DHT22;1391;46.74287300;11.63683300;2023-11-21T12:19:26;12.70;10.60
2767;DHT22;1391;46.74287300;11.63683300;2023-11-21T12:21:53;12.60;9.00
2767;DHT22;1391;46.74287300;11.63683300;2023-11-21T12:24:21;12.40;11.30
2767;DHT22;1391;46.74287300;11.63683300;2023-11-21T12:26:49;12.10;13.50
2767;DHT22;1391;46.74287300;11.63683300;2023-11-21T12:29:18;12.20;12.00
2767;DHT22;1391;46.74287300;11.63683300;2023-11-21T12:31:49;12.50;13.10
2767;DHT22;1391;46.74287300;11.63683300;2023-11-21T12:34:16;12.20;16.90
2767;DHT22;1391;46.74287300;11.63683300;2023-11-21T12:36:44;12.10;12.80
2767;DHT22;1391;46.74287300;11.63683300;2023-11-21T12:39:12;11.60;6.60
2767;DHT22;1391;46.74287300;11.63683300;2023-11-21T12:41:40;12.00;7.40
2767;DHT22;1391;46.74287300;11.63683300;2023-11-21T12:44:11;11.70;10.60
2767;DHT22;1391;46.74287300;11.63683300;2023-11-21T12:46:43;11.60;10.70
2767;DHT22;1391;46.74287300;11.63683300;2023-11-21T12:49:12;11.60;6.30
2767;DHT22;1391;46.74287300;11.63683300;2023-11-21T12:51:43;11.70;10.10
2767;DHT22;1391;46.74287300;11.63683300;2023-11-21T12:54:12;11.80;7.10
2767;DHT22;1391;46.74287300;11.63683300;2023-11-21T12:56:39;11.70;8.00
2767;DHT22;1391;46.74287300;11.63683300;2023-11-21T12:59:06;11.60;4.10
2767;DHT22;1391;46.74287300;11.63683300;2023-11-21T13:01:43;11.50;3.10
2767;DHT22;1391;46.74287300;11.63683300;2023-11-21T13:04:10;11.70;3.70
2767;DHT22;1391;46.74287300;11.63683300;2023-11-21T13:06:38;11.50;2.50
2767;DHT22;1391;46.74287300;11.63683300;2023-11-21T13:09:07;11.50;3.20
2767;DHT22;1391;46.74287300;11.63683300;2023-11-21T13:11:36;11.70;5.50
2767;DHT22;1391;46.74287300;11.63683300;2023-11-21T13:14:06;11.80;6.70
2767;DHT22;1391;46.74287300;11.63683300;2023-11-21T13:16:33;12.00;1.90
2767;DHT22;1391;46.74287300;11.63683300;2023-11-21T13:19:02;11.60;4.90
2767;DHT22;1391;46.74287300;11.63683300;2023-11-21T13:21:29;11.60;7.50
2767;DHT22;1391;46.74287300;11.63683300;2023-11-21T13:23:56;11.60;4.30
2767;DHT22;1391;46.74287300;11.63683300;2023-11-21T13:26:24;11.80;4.40
2767;DHT22;1391;46.74287300;11.63683300;2023-11-21T13:28:51;11.60;3.70
2767;DHT22;1391;46.74287300;11.63683300;2023-11-21T13:31:19;11.60;6.60
2767;DHT22;1391;46.74287300;11.63683300;2023-11-21T13:33:52;11.20;9.10
2767;DHT22;1391;46.74287300;11.63683300;2023-11-21T13:36:25;11.80;3.80
2767;DHT22;1391;46.74287300;11.63683300;2023-11-21T13:38:56;11.80;5.50
2767;DHT22;1391;46.74287300;11.63683300;2023-11-21T13:41:24;11.70;3.60
2767;DHT22;1391;46.74287300;11.63683300;2023-11-21T13:43:56;11.50;3.50
2767;DHT22;1391;46.74287300;11.63683300;2023-11-21T13:46:32;11.80;3.50
2767;DHT22;1391;46.74287300;11.63683300;2023-11-21T13:49:02;11.80;3.30
2767;DHT22;1391;46.74287300;11.63683300;2023-11-21T13:51:37;11.80;3.90
2767;DHT22;1391;46.74287300;11.63683300;2023-11-21T13:54:08;11.40;4.70
2767;DHT22;1391;46.74287300;11.63683300;2023-11-21T13:56:36;11.00;3.20